Список аэропортов
Фактическая погода:

24 октября, 12:00
Температура: +23°C (+23.0*)
Ветер: южный 6 м/с
Давление: *758 мм
несуществ. обл.
Время (МСК)Темп. СВетерВлажностьДавлениеОблачностьОсадки
09:00+17Штиль 68%1012 гПас прояснениями
10:00+20ЮВ, 4 м/с51%1012 гПас прояснениями
11:00+21ЮВ, 7 м/с45%1011 гПаоблачно
12:00+22ЮВ, 8 м/с43%1012 гПаоблачно
13:00+22ЮВ, 8 м/с41%1012 гПаоблачно
14:00+23ЮВ, 7 м/с40%1012 гПаоблачно
15:00+23ЮВ, 6 м/с41%1012 гПаоблачно
16:00+22ЮВ, 4 м/с49%1012 гПаоблачно
17:00+20ЮВ, 4 м/с61%1012 гПаоблачно
18:00+19В, 3 м/с61%1013 гПаоблачно
19:00+19В, 5 м/с46%1013 гПаоблачно
20:00+19В, 3 м/с45%1013 гПаоблачно
21:00+17В, 1 м/с55%1013 гПаоблачно
22:00+16В, 1 м/с61%1014 гПаоблачно
23:00+15В, 1 м/с66%1014 гПаоблачно
25 октября
00:00+15СВ, 1 м/с69%1014 гПаоблачно
01:00+15СВ, 1 м/с68%1014 гПаоблачно
02:00+15СВ, 2 м/с62%1014 гПаоблачно
03:00+15СВ, 2 м/с60%1014 гПаоблачно
04:00+14СВ, 1 м/с63%1013 гПаоблачно
05:00+15В, 2 м/с60%1014 гПаоблачно
06:00+17ЮВ, 3 м/с49%1014 гПас прояснениями
07:00+19ЮВ, 5 м/с43%1014 гПас прояснениями
08:00+21ЮВ, 6 м/с37%1014 гПаоблачно
09:00+23ЮВ, 6 м/с35%1014 гПаоблачно
10:00+23ЮВ, 7 м/с38%1014 гПаоблачно
11:00+24ЮВ, 7 м/с38%1014 гПамалооблачно
12:00+24ЮВ, 7 м/с38%1014 гПамалооблачно
13:00+24Ю, 6 м/с41%1014 гПаоблачно
14:00+23ЮВ, 5 м/с43%1014 гПаоблачно
15:00+22Ю, 4 м/с49%1014 гПаоблачно
16:00+21Ю, 2 м/с59%1014 гПаоблачно
17:00+19СВ, 1 м/с72%1014 гПас прояснениями
18:00+19СВ, 2 м/с66%1015 гПас прояснениями
19:00+18СВ, 2 м/с64%1015 гПас прояснениями
20:00+18СВ, 3 м/с62%1015 гПаоблачно
21:00+18СВ, 3 м/с59%1015 гПаоблачно
22:00+17СВ, 3 м/с59%1016 гПамалооблачно
23:00+17СВ, 3 м/с60%1015 гПас прояснениями
26 октября
00:00+17СВ, 3 м/с61%1015 гПас прояснениями
01:00+17СВ, 3 м/с61%1016 гПас прояснениями
02:00+18СВ, 3 м/с62%1015 гПас прояснениями
03:00+17СВ, 3 м/с64%1015 гПаоблачно
04:00+17СВ, 2 м/с65%1015 гПаоблачно
05:00+17СВ, 2 м/с69%1015 гПас прояснениями
06:00+17СВ, 2 м/с68%1016 гПаоблачно
07:00+17СВ, 2 м/с70%1015 гПаоблачно
08:00+17СВ, 2 м/с74%1015 гПаоблачно
09:00+18С, 1 м/с74%1015 гПаоблачно